Terminal Aerodrome Forecast
Issued by NWS

Home | Current Version | Previous Version | Text Only | Print | Product List | Glossary On
Versions: 1 2 3 4 5 6 7 8 9 10 11 12 13 14 15 16 17 18 19 20
488
FTUS41 KBTV 231859 AAA
TAFSLK
TAF AMD
KSLK 231859Z 2319/2418 19011G17KT 6SM -RA BR OVC025
     FM240000 21011G20KT 6SM -RA BR OVC020 WS020/22040KT
     FM240300 24010G20KT P6SM VCSH OVC008 WS020/27040KT
     FM240700 24010G20KT P6SM OVC008
     FM241700 29008KT P6SM BKN035=

USA.gov is the U.S. government's official web portal to all federal, state and local government web resources and services.